Time;durP1;ratioP1;P1;durP2;ratioP2;P2;SDS_P1;SDS_P2;PMS_P1;PMS_P2;Temp;Humidity;BMP_temperature;BMP_pressure;BME280_temperature;BME280_humidity;BME280_pressure;Samples;Min_cycle;Max_cycle;Signal;HPM_P1;HPM_P2
2023/08/16 00:00:26;;;;;;;11.52;8.10;;;20.80;99.90;;;;;;4918456;29;20035;-72
2023/08/16 00:02:51;;;;;;;11.82;7.55;;;20.80;99.90;;;;;;4918165;29;20374;-74
2023/08/16 00:05:17;;;;;;;19.27;8.23;;;20.80;99.90;;;;;;4925541;29;20107;-75
2023/08/16 00:07:43;;;;;;;11.15;7.65;;;20.80;99.90;;;;;;4918010;29;20111;-74
2023/08/16 00:10:11;;;;;;;15.10;8.75;;;20.80;99.90;;;;;;4918499;29;20509;-72
2023/08/16 00:12:37;;;;;;;12.40;8.77;;;20.70;99.90;;;;;;4917781;29;20024;-75
2023/08/16 00:15:03;;;;;;;19.02;8.73;;;20.80;99.90;;;;;;4918125;29;20056;-76
2023/08/16 00:17:29;;;;;;;12.82;8.27;;;20.80;99.90;;;;;;4917999;29;20053;-74
2023/08/16 00:19:54;;;;;;;13.95;8.15;;;20.90;99.90;;;;;;4918063;29;20031;-74
2023/08/16 00:22:20;;;;;;;11.57;7.60;;;21.00;99.90;;;;;;4917750;29;20090;-73
2023/08/16 00:24:46;;;;;;;11.55;7.30;;;21.00;99.90;;;;;;4900515;29;20051;-76
2023/08/16 00:27:12;;;;;;;10.52;7.25;;;21.00;99.90;;;;;;4917877;29;20032;-72
2023/08/16 00:29:37;;;;;;;11.73;8.02;;;21.00;99.90;;;;;;4901818;29;20042;-74
2023/08/16 00:32:07;;;;;;;14.10;8.45;;;21.10;99.90;;;;;;4915015;29;20599;-73
2023/08/16 00:34:33;;;;;;;14.55;7.97;;;21.00;99.90;;;;;;4917378;29;20101;-74
2023/08/16 00:36:59;;;;;;;13.45;7.53;;;21.00;99.90;;;;;;4915900;29;20088;-73
2023/08/16 00:39:25;;;;;;;12.02;8.10;;;21.00;99.90;;;;;;4910488;29;20051;-74
2023/08/16 00:41:50;;;;;;;12.40;8.40;;;21.00;99.90;;;;;;4900745;29;20031;-73
2023/08/16 00:44:16;;;;;;;14.63;8.65;;;20.90;99.90;;;;;;4915951;29;20403;-73
2023/08/16 00:46:42;;;;;;;14.23;8.45;;;20.90;99.90;;;;;;4915012;29;20067;-73
2023/08/16 00:49:08;;;;;;;14.15;8.85;;;20.80;99.90;;;;;;4917551;29;20034;-73
2023/08/16 00:51:34;;;;;;;13.88;8.82;;;20.80;99.90;;;;;;4900018;29;20075;-72
2023/08/16 00:54:00;;;;;;;12.65;8.88;;;20.80;99.90;;;;;;4900309;29;20488;-75
2023/08/16 00:56:26;;;;;;;13.73;8.20;;;20.80;99.90;;;;;;4890089;29;20163;-74
2023/08/16 00:58:52;;;;;;;14.80;9.40;;;20.70;99.90;;;;;;4910051;29;20087;-74
2023/08/16 01:01:19;;;;;;;13.93;9.13;;;20.50;99.90;;;;;;4903549;29;20159;-75
2023/08/16 01:03:46;;;;;;;13.77;9.63;;;20.60;99.90;;;;;;4904806;29;20044;-73
2023/08/16 01:06:12;;;;;;;14.30;9.60;;;20.50;99.90;;;;;;4896276;29;20119;-74
2023/08/16 01:08:38;;;;;;;14.00;9.20;;;20.50;99.90;;;;;;4895586;29;20075;-75
2023/08/16 01:11:17;;;;;;;15.35;9.93;;;20.30;99.90;;;;;;4894768;29;20043;-74
2023/08/16 01:14:01;;;;;;;13.63;9.82;;;20.30;99.90;;;;;;4895765;29;20384;-74
2023/08/16 01:16:28;;;;;;;15.45;9.05;;;20.40;99.90;;;;;;4899190;29;20028;-73
2023/08/16 01:18:56;;;;;;;14.55;9.35;;;20.40;99.90;;;;;;4900010;29;20031;-73
2023/08/16 01:21:23;;;;;;;17.05;9.98;;;20.50;99.90;;;;;;4895898;29;20040;-74
2023/08/16 01:24:16;;;;;;;15.23;9.95;;;20.40;99.90;;;;;;4894706;29;20047;-73
2023/08/16 01:26:43;;;;;;;15.82;10.43;;;20.40;99.90;;;;;;4894342;29;20425;-73
2023/08/16 01:29:10;;;;;;;16.63;10.77;;;20.40;99.90;;;;;;4895879;29;20020;-73
2023/08/16 01:31:37;;;;;;;15.23;9.88;;;20.30;99.90;;;;;;4894480;29;20075;-72
2023/08/16 01:34:05;;;;;;;16.77;10.95;;;20.20;99.90;;;;;;4895410;29;20067;-73
2023/08/16 01:36:30;;;;;;;15.70;10.63;;;20.20;99.90;;;;;;4878858;29;20426;-75
2023/08/16 01:38:56;;;;;;;14.48;10.07;;;20.20;99.90;;;;;;4895393;29;20057;-72
2023/08/16 01:41:31;;;;;;;16.92;11.00;;;20.20;99.90;;;;;;4895592;29;20151;-73
2023/08/16 01:43:57;;;;;;;13.27;9.82;;;20.30;99.90;;;;;;4893754;29;20080;-73
2023/08/16 01:46:25;;;;;;;14.80;10.18;;;20.30;99.90;;;;;;4895436;29;20024;-73
2023/08/16 01:48:52;;;;;;;16.38;10.75;;;20.30;99.90;;;;;;4895329;29;20016;-73
2023/08/16 01:51:18;;;;;;;16.70;9.90;;;20.40;99.90;;;;;;4863192;29;20052;-73
2023/08/16 01:53:51;;;;;;;17.08;11.68;;;20.40;99.90;;;;;;4894091;29;20037;-75
2023/08/16 01:56:17;;;;;;;15.85;10.25;;;20.40;99.90;;;;;;4894568;29;20096;-74
2023/08/16 01:58:42;;;;;;;16.05;11.30;;;20.50;99.90;;;;;;4893882;29;20040;-73
2023/08/16 02:01:08;;;;;;;17.55;11.02;;;20.40;99.90;;;;;;4894042;29;20040;-73
2023/08/16 02:03:34;;;;;;;17.00;11.90;;;20.50;99.90;;;;;;4877826;29;20485;-74
2023/08/16 02:06:00;;;;;;;17.88;10.95;;;20.50;99.90;;;;;;4893713;29;20024;-73
2023/08/16 02:08:26;;;;;;;17.20;10.75;;;20.40;99.90;;;;;;4895302;29;20027;-74
2023/08/16 02:10:52;;;;;;;14.80;10.52;;;20.50;99.90;;;;;;4877266;29;20131;-76
2023/08/16 02:13:17;;;;;;;14.93;10.50;;;20.50;99.90;;;;;;4877707;29;20104;-73
2023/08/16 02:15:44;;;;;;;16.55;10.50;;;20.50;99.90;;;;;;4893351;29;20552;-77
2023/08/16 02:18:13;;;;;;;18.65;11.90;;;20.40;99.90;;;;;;4897453;29;20049;-74
2023/08/16 02:20:40;;;;;;;18.33;11.18;;;20.40;99.90;;;;;;4898233;29;20548;-76
2023/08/16 02:23:06;;;;;;;16.17;10.60;;;20.50;99.90;;;;;;4893477;29;20048;-76
2023/08/16 02:25:33;;;;;;;19.85;11.45;;;20.50;99.90;;;;;;4894926;29;20039;-74
2023/08/16 02:27:59;;;;;;;14.82;10.55;;;20.60;99.90;;;;;;4893499;29;20025;-75
2023/08/16 02:30:25;;;;;;;15.25;10.25;;;20.60;99.90;;;;;;4894763;29;20028;-76
2023/08/16 02:32:52;;;;;;;16.33;10.38;;;20.70;99.90;;;;;;4893207;29;20128;-75
2023/08/16 02:35:18;;;;;;;17.55;11.57;;;20.80;99.90;;;;;;4893713;29;20052;-73
2023/08/16 02:37:44;;;;;;;16.98;10.82;;;20.80;99.90;;;;;;4893331;29;20469;-75
2023/08/16 02:40:10;;;;;;;14.95;10.43;;;20.70;99.90;;;;;;4877874;29;20116;-75
2023/08/16 02:42:36;;;;;;;15.43;10.48;;;20.80;99.90;;;;;;4894654;29;20028;-74
2023/08/16 02:45:02;;;;;;;16.17;10.48;;;20.80;99.90;;;;;;4894748;29;20593;-74
2023/08/16 02:47:28;;;;;;;18.50;10.88;;;20.90;99.90;;;;;;4894645;29;20142;-75
2023/08/16 02:49:54;;;;;;;15.77;9.75;;;20.90;99.90;;;;;;4892848;29;20041;-73
2023/08/16 02:52:20;;;;;;;13.52;9.70;;;20.90;99.90;;;;;;4893576;29;20508;-75
2023/08/16 02:54:45;;;;;;;23.77;18.83;;;21.00;99.90;;;;;;4893349;29;20039;-76
2023/08/16 02:57:11;;;;;;;22.45;16.73;;;21.10;99.90;;;;;;4896766;29;20083;-76
2023/08/16 02:59:41;;;;;;;21.08;15.75;;;20.90;99.90;;;;;;4894428;29;20033;-74
2023/08/16 03:02:08;;;;;;;20.65;14.82;;;20.90;99.90;;;;;;4877859;29;20477;-73
2023/08/16 03:04:39;;;;;;;15.93;12.18;;;20.90;99.90;;;;;;4897375;29;20422;-74
2023/08/16 03:07:06;;;;;;;17.90;13.00;;;20.90;99.90;;;;;;4890769;29;20071;-75
2023/08/16 03:09:32;;;;;;;16.63;11.75;;;20.80;99.90;;;;;;4890638;29;20029;-73
2023/08/16 03:11:58;;;;;;;17.02;10.77;;;20.80;99.90;;;;;;4888098;29;20040;-76
2023/08/16 03:14:24;;;;;;;17.45;11.75;;;20.80;99.90;;;;;;4897734;29;20053;-74
2023/08/16 03:16:50;;;;;;;17.25;10.95;;;20.70;99.90;;;;;;4901995;29;20108;-73
2023/08/16 03:19:16;;;;;;;19.98;11.75;;;20.70;99.90;;;;;;4902350;29;20107;-73
2023/08/16 03:21:42;;;;;;;16.05;11.05;;;20.70;99.90;;;;;;4902162;29;20039;-73
2023/08/16 03:24:10;;;;;;;19.52;10.68;;;20.60;99.90;;;;;;4901952;29;20386;-73
2023/08/16 03:26:36;;;;;;;17.20;11.35;;;20.60;99.90;;;;;;4919197;29;20031;-73
2023/08/16 03:29:04;;;;;;;15.05;10.82;;;20.60;99.90;;;;;;4918310;29;20032;-77
2023/08/16 03:31:30;;;;;;;17.52;11.85;;;20.60;99.90;;;;;;4901606;29;20433;-74
2023/08/16 03:33:56;;;;;;;15.90;10.48;;;20.60;99.90;;;;;;4918754;29;20028;-76
2023/08/16 03:36:23;;;;;;;14.68;10.23;;;20.60;99.90;;;;;;4901928;29;20036;-74
2023/08/16 03:38:50;;;;;;;17.88;11.50;;;20.50;99.90;;;;;;4918558;29;20056;-74
2023/08/16 03:41:16;;;;;;;17.13;11.80;;;20.40;99.90;;;;;;4901916;29;20028;-74
2023/08/16 03:43:42;;;;;;;16.38;11.60;;;20.40;99.90;;;;;;4901417;29;20092;-77
2023/08/16 03:46:07;;;;;;;18.80;12.82;;;20.40;99.90;;;;;;4917495;29;20036;-74
2023/08/16 03:48:34;;;;;;;19.90;12.40;;;20.40;99.90;;;;;;4918813;29;20116;-75
2023/08/16 03:51:00;;;;;;;17.73;11.60;;;20.40;99.90;;;;;;4917297;29;20024;-76
2023/08/16 03:53:27;;;;;;;17.00;11.88;;;20.40;99.90;;;;;;4918698;29;20099;-73
2023/08/16 03:55:57;;;;;;;17.48;12.38;;;20.40;99.90;;;;;;4916953;29;20456;-74
2023/08/16 03:58:23;;;;;;;21.45;11.63;;;20.50;99.90;;;;;;4901190;29;20042;-75
2023/08/16 04:00:51;;;;;;;21.27;13.40;;;20.50;99.90;;;;;;4901409;29;20028;-75
2023/08/16 04:03:17;;;;;;;17.75;12.70;;;20.50;99.90;;;;;;4917234;29;20039;-76
2023/08/16 04:05:43;;;;;;;18.58;13.50;;;20.50;99.90;;;;;;4916706;29;20062;-75
2023/08/16 04:08:09;;;;;;;18.50;12.15;;;20.30;99.90;;;;;;4916823;29;20500;-74
2023/08/16 04:10:36;;;;;;;16.35;11.45;;;20.30;99.90;;;;;;4918225;29;20028;-76
2023/08/16 04:13:03;;;;;;;17.42;12.02;;;20.30;99.90;;;;;;4900724;29;20032;-73
2023/08/16 04:15:28;;;;;;;16.90;11.38;;;20.40;99.90;;;;;;4901286;29;20516;-76
2023/08/16 04:17:55;;;;;;;17.85;11.98;;;20.40;99.90;;;;;;4916838;29;20024;-73
2023/08/16 04:20:21;;;;;;;18.20;11.18;;;20.40;99.90;;;;;;4900723;29;20100;-75
2023/08/16 04:22:48;;;;;;;15.60;10.90;;;20.20;99.90;;;;;;4901063;29;20038;-76
2023/08/16 04:25:14;;;;;;;16.33;12.05;;;20.40;99.90;;;;;;4901179;29;20512;-74
2023/08/16 04:27:41;;;;;;;17.63;12.18;;;20.40;99.90;;;;;;4900719;29;20028;-76
2023/08/16 04:30:08;;;;;;;19.35;13.30;;;20.40;99.90;;;;;;4900881;29;20076;-74
2023/08/16 04:32:35;;;;;;;19.23;12.02;;;20.40;99.90;;;;;;4917569;29;20032;-74
2023/08/16 04:35:01;;;;;;;15.82;10.88;;;20.40;99.90;;;;;;4900445;29;20070;-76
2023/08/16 04:37:27;;;;;;;17.15;11.20;;;20.40;99.90;;;;;;4900421;29;20028;-73
2023/08/16 04:39:53;;;;;;;14.50;10.40;;;20.30;99.90;;;;;;4916592;29;20042;-74
2023/08/16 04:42:19;;;;;;;14.25;10.38;;;20.40;99.90;;;;;;4917949;29;20107;-74
2023/08/16 04:44:45;;;;;;;16.58;9.32;;;20.60;99.90;;;;;;4917355;29;20559;-73
2023/08/16 04:47:11;;;;;;;12.57;8.57;;;20.70;99.90;;;;;;4900652;29;20050;-76
2023/08/16 04:49:37;;;;;;;15.23;9.20;;;20.70;99.90;;;;;;4917658;29;20038;-73
2023/08/16 04:52:03;;;;;;;13.15;7.82;;;20.80;99.90;;;;;;4917915;29;20123;-74
2023/08/16 04:54:29;;;;;;;10.25;6.60;;;20.90;99.90;;;;;;4917339;29;20044;-77
2023/08/16 04:56:55;;;;;;;10.80;7.10;;;20.90;99.90;;;;;;4916208;29;20027;-75
2023/08/16 04:59:21;;;;;;;10.63;6.57;;;21.10;99.90;;;;;;4915759;29;20062;-76
2023/08/16 05:01:47;;;;;;;10.27;7.20;;;21.10;99.90;;;;;;4917433;29;20111;-73
2023/08/16 05:04:14;;;;;;;9.00;6.68;;;21.20;99.90;;;;;;4916289;29;20131;-74
2023/08/16 05:06:40;;;;;;;12.27;7.38;;;21.30;99.90;;;;;;4915698;29;20111;-74
2023/08/16 05:09:06;;;;;;;14.27;7.13;;;21.50;99.90;;;;;;4900477;29;20551;-75
2023/08/16 05:11:32;;;;;;;10.35;6.57;;;21.60;99.90;;;;;;4915817;29;20123;-77
2023/08/16 05:13:58;;;;;;;10.52;6.68;;;21.70;99.90;;;;;;4912454;29;20044;-75
2023/08/16 05:16:24;;;;;;;9.52;6.55;;;21.80;99.90;;;;;;4916597;29;20039;-75
2023/08/16 05:18:52;;;;;;;12.27;6.63;;;21.80;99.90;;;;;;4900311;29;20028;-74
2023/08/16 05:21:20;;;;;;;10.70;6.95;;;22.10;99.90;;;;;;4909937;29;20032;-77
2023/08/16 05:23:46;;;;;;;15.73;7.25;;;22.20;99.90;;;;;;4910800;29;20115;-74
2023/08/16 05:26:12;;;;;;;10.50;6.82;;;22.50;99.90;;;;;;4917124;29;20107;-73
2023/08/16 05:28:38;;;;;;;11.65;7.10;;;22.60;99.90;;;;;;4916741;29;20111;-73
2023/08/16 05:31:08;;;;;;;12.13;7.50;;;21.80;99.90;;;;;;4915994;29;20107;-74
2023/08/16 05:33:35;;;;;;;12.32;7.93;;;22.00;99.90;;;;;;4916519;29;20032;-73
2023/08/16 05:36:00;;;;;;;15.65;7.72;;;22.20;99.90;;;;;;4917002;29;20027;-76
2023/08/16 05:38:26;;;;;;;10.70;7.20;;;22.10;99.90;;;;;;4916232;29;20450;-73
2023/08/16 05:40:53;;;;;;;10.35;6.93;;;22.00;99.90;;;;;;4916842;29;20028;-74
2023/08/16 05:43:19;;;;;;;13.48;7.05;;;22.00;99.90;;;;;;4916451;29;20095;-73
2023/08/16 05:45:44;;;;;;;12.88;7.55;;;22.00;99.90;;;;;;4916530;29;20023;-77
2023/08/16 05:48:10;;;;;;;12.02;7.53;;;21.60;99.90;;;;;;4915068;29;20036;-76
2023/08/16 05:50:36;;;;;;;12.30;8.38;;;21.40;99.90;;;;;;4916397;29;20059;-73
2023/08/16 05:53:03;;;;;;;13.75;8.32;;;21.40;99.90;;;;;;4916301;29;20032;-76
2023/08/16 05:55:29;;;;;;;15.40;7.88;;;21.40;99.90;;;;;;4916337;29;20084;-74
2023/08/16 05:57:54;;;;;;;16.20;8.57;;;21.10;99.90;;;;;;4916343;29;20036;-74
2023/08/16 06:00:21;;;;;;;14.77;9.10;;;21.20;99.90;;;;;;4893961;29;20524;-74
2023/08/16 06:02:47;;;;;;;14.13;8.10;;;21.20;99.90;;;;;;4897364;29;20040;-74
2023/08/16 06:05:12;;;;;;;13.63;8.57;;;21.10;99.90;;;;;;4899093;29;20409;-76
2023/08/16 06:07:38;;;;;;;16.85;8.70;;;21.10;99.90;;;;;;4890967;29;20041;-73
2023/08/16 06:10:05;;;;;;;14.77;9.25;;;21.00;99.90;;;;;;4895853;29;20032;-76
2023/08/16 06:12:31;;;;;;;15.50;9.02;;;21.00;99.90;;;;;;4897520;29;20032;-74
2023/08/16 06:14:57;;;;;;;17.02;9.77;;;20.80;99.90;;;;;;4896894;29;20047;-75
2023/08/16 06:17:23;;;;;;;16.00;9.80;;;20.90;99.90;;;;;;4897901;29;20491;-73
2023/08/16 06:19:49;;;;;;;16.23;9.07;;;20.70;99.90;;;;;;4908780;29;20024;-73
2023/08/16 06:22:15;;;;;;;14.52;9.52;;;20.80;99.90;;;;;;4897014;29;20036;-74
2023/08/16 06:24:41;;;;;;;13.80;8.95;;;20.80;99.90;;;;;;4900664;29;20084;-73
2023/08/16 06:27:08;;;;;;;16.55;10.13;;;20.70;99.90;;;;;;4906597;29;20100;-73
2023/08/16 06:29:35;;;;;;;16.50;10.40;;;20.70;99.90;;;;;;4902851;29;20032;-74
2023/08/16 06:32:02;;;;;;;16.13;9.80;;;20.80;99.90;;;;;;4903081;29;20120;-77
2023/08/16 06:34:29;;;;;;;14.55;9.30;;;20.90;99.90;;;;;;4897100;29;20040;-74
2023/08/16 06:36:55;;;;;;;15.10;9.80;;;21.10;99.90;;;;;;4895793;29;20032;-73
2023/08/16 06:39:21;;;;;;;16.48;10.30;;;21.40;99.90;;;;;;4890468;29;20048;-75
2023/08/16 06:41:48;;;;;;;16.17;10.05;;;21.40;99.90;;;;;;4895961;29;20112;-77
2023/08/16 06:44:14;;;;;;;15.18;10.05;;;21.40;99.90;;;;;;4889312;29;20024;-74
2023/08/16 06:46:40;;;;;;;17.60;11.07;;;21.60;99.90;;;;;;4896677;29;20076;-77
2023/08/16 06:49:06;;;;;;;16.80;11.40;;;21.70;99.90;;;;;;4896725;29;20040;-76
2023/08/16 06:51:31;;;;;;;20.70;10.00;;;21.80;99.90;;;;;;4896506;29;20033;-78
2023/08/16 06:53:57;;;;;;;16.52;10.45;;;21.80;99.90;;;;;;4898043;29;20064;-74
2023/08/16 06:56:23;;;;;;;16.63;10.50;;;21.80;99.90;;;;;;4907938;29;20092;-73
2023/08/16 06:58:50;;;;;;;17.33;10.45;;;21.70;99.90;;;;;;4896472;29;20024;-76
2023/08/16 07:01:15;;;;;;;15.02;10.18;;;21.60;99.90;;;;;;4896642;29;20025;-77
2023/08/16 07:03:41;;;;;;;16.85;9.70;;;21.70;99.90;;;;;;4895723;29;20232;-77
2023/08/16 07:06:07;;;;;;;22.67;10.43;;;21.80;99.90;;;;;;4915603;29;20464;-77
2023/08/16 07:08:33;;;;;;;14.88;10.13;;;21.80;99.90;;;;;;4902236;29;20036;-73
2023/08/16 07:10:59;;;;;;;14.75;9.68;;;21.70;99.90;;;;;;4903824;29;20468;-76
2023/08/16 07:13:25;;;;;;;13.80;9.82;;;21.70;99.90;;;;;;4915458;29;20036;-73
2023/08/16 07:15:51;;;;;;;13.77;9.02;;;21.50;99.90;;;;;;4915256;29;20029;-74
2023/08/16 07:18:17;;;;;;;14.77;8.60;;;21.50;99.90;;;;;;4915560;29;20051;-78
2023/08/16 07:20:43;;;;;;;14.50;8.90;;;21.40;99.90;;;;;;4915213;29;20032;-74
2023/08/16 07:23:09;;;;;;;15.05;8.90;;;21.50;99.90;;;;;;4915439;29;20028;-74
2023/08/16 07:25:35;;;;;;;13.77;9.73;;;21.50;99.90;;;;;;4914846;29;20526;-73
2023/08/16 07:28:04;;;;;;;12.55;8.10;;;21.60;99.90;;;;;;4915573;29;20024;-75
2023/08/16 07:30:29;;;;;;;14.30;8.85;;;21.60;99.90;;;;;;4914922;29;20443;-77
2023/08/16 07:32:55;;;;;;;12.43;8.25;;;21.70;99.90;;;;;;4915380;29;20124;-73
2023/08/16 07:35:22;;;;;;;14.57;8.40;;;21.70;99.90;;;;;;4897272;29;20052;-77
2023/08/16 07:37:48;;;;;;;15.95;8.68;;;21.60;99.90;;;;;;4896116;29;20056;-74
2023/08/16 07:40:14;;;;;;;13.18;8.93;;;21.50;99.90;;;;;;4896544;29;20040;-77
2023/08/16 07:42:40;;;;;;;14.48;9.45;;;21.40;99.90;;;;;;4896157;29;20027;-77
2023/08/16 07:45:06;;;;;;;12.60;8.43;;;21.50;99.90;;;;;;4896302;29;20020;-74
2023/08/16 07:47:32;;;;;;;14.30;8.10;;;21.40;99.90;;;;;;4896194;29;20037;-77
2023/08/16 07:49:58;;;;;;;11.20;7.78;;;21.50;99.90;;;;;;4896581;29;20056;-72
2023/08/16 07:52:24;;;;;;;11.65;8.43;;;21.60;99.90;;;;;;4896267;29;20021;-77
2023/08/16 07:54:50;;;;;;;11.63;8.35;;;21.60;99.90;;;;;;4897812;29;20039;-77
2023/08/16 07:57:16;;;;;;;13.60;7.65;;;21.50;99.90;;;;;;4899511;29;20025;-76
2023/08/16 07:59:42;;;;;;;15.25;8.27;;;21.50;99.90;;;;;;4899167;29;20035;-73
2023/08/16 08:02:08;;;;;;;12.52;8.13;;;21.50;99.90;;;;;;4910305;29;20485;-76
2023/08/16 08:04:35;;;;;;;14.63;7.95;;;21.50;99.90;;;;;;4908017;29;20540;-73
2023/08/16 08:07:02;;;;;;;12.70;7.93;;;21.50;99.90;;;;;;4897644;29;20024;-76
2023/08/16 08:09:27;;;;;;;15.57;8.00;;;21.50;99.90;;;;;;4904193;29;20111;-76
2023/08/16 08:11:53;;;;;;;14.65;8.88;;;21.50;99.90;;;;;;4913491;29;20557;-73
2023/08/16 08:14:20;;;;;;;13.38;7.63;;;21.50;99.90;;;;;;4907405;29;20059;-73
2023/08/16 08:16:46;;;;;;;12.40;7.45;;;21.50;99.90;;;;;;4910217;29;20032;-74
2023/08/16 08:19:12;;;;;;;10.07;7.80;;;21.50;99.90;;;;;;4914753;29;20040;-74
2023/08/16 08:21:38;;;;;;;12.50;8.05;;;21.60;99.90;;;;;;4899577;29;20107;-74
2023/08/16 08:24:04;;;;;;;12.05;7.80;;;21.60;99.90;;;;;;4898966;29;20473;-73
2023/08/16 08:26:30;;;;;;;11.80;7.68;;;21.70;99.90;;;;;;4906015;29;20047;-74
2023/08/16 08:28:56;;;;;;;12.07;7.40;;;21.70;99.90;;;;;;4901084;29;20067;-74
2023/08/16 08:31:23;;;;;;;13.15;7.70;;;21.60;99.90;;;;;;4905403;29;20037;-73
2023/08/16 08:33:49;;;;;;;11.90;7.68;;;21.70;99.90;;;;;;4882334;29;20028;-77
2023/08/16 08:36:15;;;;;;;14.60;7.93;;;21.70;99.90;;;;;;4899051;29;20982;-74
2023/08/16 08:38:41;;;;;;;12.60;7.22;;;21.80;99.90;;;;;;4900407;29;20055;-78
2023/08/16 08:41:08;;;;;;;10.98;7.47;;;21.80;99.90;;;;;;4917634;29;20453;-76
2023/08/16 08:43:35;;;;;;;12.93;8.07;;;21.90;99.90;;;;;;4917224;29;20056;-73
2023/08/16 08:46:03;;;;;;;13.75;7.63;;;22.00;99.90;;;;;;4917628;29;20020;-73
2023/08/16 08:48:29;;;;;;;12.40;7.13;;;21.80;99.90;;;;;;4921580;29;20040;-77
2023/08/16 08:50:56;;;;;;;13.95;8.38;;;22.00;99.90;;;;;;4917675;29;20048;-78
2023/08/16 08:53:23;;;;;;;13.23;7.13;;;22.20;99.90;;;;;;4917183;29;20092;-76
2023/08/16 08:55:54;;;;;;;11.30;7.90;;;22.30;99.90;;;;;;4901642;29;20028;-76
2023/08/16 08:58:21;;;;;;;11.80;7.82;;;22.40;99.90;;;;;;4900429;29;20553;-73
2023/08/16 09:00:48;;;;;;;12.20;7.28;;;22.30;99.90;;;;;;4900528;29;20021;-73
2023/08/16 09:03:19;;;;;;;12.20;7.47;;;22.10;99.90;;;;;;4905174;29;20497;-73
2023/08/16 09:05:45;;;;;;;10.52;7.40;;;22.10;99.90;;;;;;4904109;29;20028;-73
2023/08/16 09:08:16;;;;;;;10.93;7.68;;;22.00;99.90;;;;;;4916544;29;20035;-78
2023/08/16 09:10:42;;;;;;;11.77;8.15;;;22.40;99.90;;;;;;4913220;29;20024;-73
2023/08/16 09:13:11;;;;;;;16.45;8.18;;;22.50;99.90;;;;;;4903773;29;20119;-72
2023/08/16 09:15:38;;;;;;;9.80;6.72;;;22.40;99.90;;;;;;4909966;29;20103;-73
2023/08/16 09:18:19;;;;;;;11.55;7.45;;;22.60;99.90;;;;;;4904666;29;20094;-75
2023/08/16 09:20:45;;;;;;;9.23;5.90;;;22.90;99.90;;;;;;4898862;29;20040;-73
2023/08/16 09:23:16;;;;;;;13.52;6.90;;;23.30;99.90;;;;;;4903862;29;20391;-76
2023/08/16 09:25:42;;;;;;;11.68;7.22;;;23.50;99.90;;;;;;4906744;29;20044;-76
2023/08/16 09:28:12;;;;;;;10.32;6.70;;;23.70;99.90;;;;;;4912749;29;20163;-77
2023/08/16 09:30:38;;;;;;;10.13;6.63;;;23.60;99.90;;;;;;4917361;29;20103;-76
2023/08/16 09:33:04;;;;;;;13.60;7.97;;;23.60;99.90;;;;;;4897844;29;20047;-73
2023/08/16 09:35:32;;;;;;;15.20;8.38;;;23.90;99.90;;;;;;4907094;29;20084;-74
2023/08/16 09:37:59;;;;;;;11.80;8.98;;;23.70;99.90;;;;;;4897629;29;20092;-77
2023/08/16 09:40:25;;;;;;;16.65;9.32;;;23.70;99.90;;;;;;4898061;29;20462;-77
2023/08/16 09:42:52;;;;;;;13.23;9.85;;;23.50;99.90;;;;;;4899344;29;20143;-77
2023/08/16 09:45:34;;;;;;;16.67;10.10;;;23.40;99.90;;;;;;4911206;29;20021;-77
2023/08/16 09:48:01;;;;;;;15.32;11.15;;;23.40;99.90;;;;;;4916288;29;20057;-77
2023/08/16 09:50:35;;;;;;;18.05;11.27;;;23.20;99.90;;;;;;4902236;29;20397;-77
2023/08/16 09:53:05;;;;;;;18.33;12.95;;;23.10;99.90;;;;;;4909884;29;20036;-77
2023/08/16 09:55:33;;;;;;;16.20;11.20;;;23.10;99.90;;;;;;4908703;29;20036;-72
2023/08/16 09:58:02;;;;;;;17.55;11.63;;;23.10;99.90;;;;;;4882947;29;20040;-77
2023/08/16 10:00:30;;;;;;;17.52;11.57;;;23.10;99.90;;;;;;4926504;29;20040;-74
2023/08/16 10:02:56;;;;;;;18.83;12.20;;;23.10;99.90;;;;;;4915989;29;20024;-73
2023/08/16 10:05:24;;;;;;;16.63;11.15;;;23.10;99.90;;;;;;4911703;29;20024;-77
2023/08/16 10:07:51;;;;;;;16.83;12.43;;;23.20;99.90;;;;;;4897295;29;20495;-74
2023/08/16 10:10:17;;;;;;;18.30;12.13;;;23.30;99.90;;;;;;4915156;29;20028;-76
2023/08/16 10:12:44;;;;;;;18.17;12.35;;;23.30;99.90;;;;;;4902397;29;20039;-74
2023/08/16 10:15:11;;;;;;;18.55;12.88;;;23.30;99.90;;;;;;4902032;29;20055;-77
2023/08/16 10:17:41;;;;;;;18.88;13.93;;;23.50;99.90;;;;;;4914979;29;20036;-76
2023/08/16 10:20:23;;;;;;;18.73;12.77;;;23.60;99.90;;;;;;4898309;29;20444;-78
2023/08/16 10:22:53;;;;;;;;;;;23.80;99.90;;;;;;4914991;29;20496;-74
2023/08/16 10:25:23;;;;;;;17.73;13.07;;;23.80;99.90;;;;;;4915383;29;19911;-75
2023/08/16 10:27:53;;;;;;;16.52;11.90;;;23.80;99.90;;;;;;4911973;29;20035;-74
2023/08/16 10:30:21;;;;;;;19.88;12.82;;;24.00;99.90;;;;;;4897762;29;20039;-77
2023/08/16 10:32:58;;;;;;;17.80;13.32;;;24.20;99.90;;;;;;4894874;29;20056;-74
2023/08/16 10:35:25;;;;;;;21.33;13.77;;;24.30;99.90;;;;;;4896738;29;20452;-77
2023/08/16 10:37:53;;;;;;;21.70;14.30;;;24.50;99.90;;;;;;4897876;29;20049;-73
2023/08/16 10:40:20;;;;;;;22.23;13.70;;;24.60;99.90;;;;;;4916116;29;20044;-74
2023/08/16 10:42:52;;;;;;;17.65;12.82;;;24.70;99.90;;;;;;4915424;29;20495;-76
2023/08/16 10:45:25;;;;;;;16.63;12.25;;;24.80;99.90;;;;;;4915473;29;20032;-76
2023/08/16 10:47:51;;;;;;;19.10;12.93;;;24.80;99.90;;;;;;4915660;29;20020;-73
2023/08/16 10:50:17;;;;;;;19.02;12.95;;;24.80;99.90;;;;;;4915243;29;20055;-74
2023/08/16 10:52:43;;;;;;;23.80;13.00;;;24.90;99.90;;;;;;4915860;29;20472;-74
2023/08/16 10:55:10;;;;;;;43.33;16.25;;;25.00;99.90;;;;;;4915163;29;20034;-74
2023/08/16 10:57:36;;;;;;;17.38;12.45;;;25.10;99.90;;;;;;4910761;29;20036;-78
2023/08/16 11:00:07;;;;;;;17.85;12.70;;;24.60;99.90;;;;;;4903960;29;20025;-74
2023/08/16 11:02:35;;;;;;;16.70;13.43;;;24.70;99.90;;;;;;4902872;29;20063;-74
2023/08/16 11:05:02;;;;;;;17.98;12.70;;;24.60;99.90;;;;;;4918854;29;20131;-75
2023/08/16 11:07:29;;;;;;;18.08;12.65;;;24.70;99.90;;;;;;4896006;29;20041;-73
2023/08/16 11:10:01;;;;;;;20.30;13.68;;;24.70;99.90;;;;;;4894519;29;20504;-76
2023/08/16 11:12:31;;;;;;;16.40;12.48;;;24.60;99.90;;;;;;4896401;29;20072;-74
2023/08/16 11:14:57;;;;;;;16.50;12.63;;;24.70;99.90;;;;;;4896965;29;20036;-76
2023/08/16 11:17:27;;;;;;;16.80;12.43;;;24.30;99.90;;;;;;4902242;29;20111;-77
2023/08/16 11:19:53;;;;;;;18.23;12.48;;;24.30;99.90;;;;;;4915274;29;20095;-77
2023/08/16 11:22:21;;;;;;;17.23;12.32;;;24.60;99.90;;;;;;4915583;29;20024;-74
2023/08/16 11:24:48;;;;;;;19.08;13.65;;;24.50;99.90;;;;;;4915301;29;20051;-74
2023/08/16 11:27:20;;;;;;;19.75;15.32;;;24.80;99.90;;;;;;4915498;29;20150;-77
2023/08/16 11:29:50;;;;;;;22.58;15.40;;;25.00;99.90;;;;;;4917209;29;20028;-74
2023/08/16 11:32:30;;;;;;;20.25;14.90;;;25.30;99.90;;;;;;4918833;29;20035;-77
2023/08/16 11:34:55;;;;;;;21.65;15.48;;;25.60;99.90;;;;;;4919204;29;20161;-73
2023/08/16 11:37:21;;;;;;;20.65;16.80;;;25.90;99.90;;;;;;4914371;29;20028;-76
2023/08/16 11:39:58;;;;;;;17.58;13.60;;;26.40;99.90;;;;;;4915670;29;20044;-76
2023/08/16 11:42:26;;;;;;;22.55;16.42;;;25.90;99.90;;;;;;4918846;29;20034;-74
2023/08/16 11:44:52;;;;;;;24.25;16.73;;;26.10;99.90;;;;;;4918747;29;20029;-74
2023/08/16 11:47:18;;;;;;;24.38;15.18;;;25.80;99.90;;;;;;4917505;29;20028;-78
2023/08/16 11:49:46;;;;;;;19.05;15.07;;;25.90;99.90;;;;;;4918359;29;20036;-74
2023/08/16 11:52:12;;;;;;;19.75;15.48;;;25.60;99.90;;;;;;4918998;29;20416;-74
2023/08/16 11:54:37;;;;;;;21.05;14.68;;;25.90;99.90;;;;;;4918370;29;20043;-76
2023/08/16 11:57:03;;;;;;;19.80;15.27;;;25.90;99.90;;;;;;4918765;29;20047;-74
2023/08/16 11:59:31;;;;;;;19.08;14.77;;;25.80;99.90;;;;;;4918496;29;20051;-73
2023/08/16 12:02:05;;;;;;;20.00;16.08;;;25.10;99.90;;;;;;4918470;29;20029;-75
2023/08/16 12:04:30;;;;;;;20.58;16.55;;;25.70;99.90;;;;;;4918488;29;20080;-74
2023/08/16 12:06:56;;;;;;;19.23;14.60;;;25.50;99.90;;;;;;4917411;29;20028;-73
2023/08/16 12:09:22;;;;;;;20.00;15.32;;;25.80;99.90;;;;;;4911823;29;20518;-77
2023/08/16 12:11:51;;;;;;;20.05;16.23;;;25.70;99.90;;;;;;4918724;29;20084;-77
2023/08/16 12:14:17;;;;;;;21.25;16.35;;;26.10;99.90;;;;;;4918159;29;20114;-78
2023/08/16 12:16:43;;;;;;;18.75;14.82;;;25.60;99.90;;;;;;4918061;29;20615;-77
2023/08/16 12:19:09;;;;;;;19.77;15.48;;;25.60;99.90;;;;;;4918093;29;20417;-73
2023/08/16 12:21:34;;;;;;;20.48;15.10;;;25.80;99.90;;;;;;4918219;29;20031;-74
2023/08/16 12:24:00;;;;;;;19.85;14.57;;;25.70;99.90;;;;;;4918106;29;20492;-74
2023/08/16 12:26:26;;;;;;;21.67;16.45;;;25.90;99.90;;;;;;4917940;29;20287;-77
2023/08/16 12:28:52;;;;;;;20.67;15.32;;;26.30;99.90;;;;;;4918164;29;20024;-77
2023/08/16 12:31:18;;;;;;;21.60;15.35;;;25.70;99.90;;;;;;4918003;29;20484;-74